Time;durP1;ratioP1;P1;durP2;ratioP2;P2;SDS_P1;SDS_P2;PMS_P1;PMS_P2;Temp;Humidity;BMP_temperature;BMP_pressure;BME280_temperature;BME280_humidity;BME280_pressure;Samples;Min_cycle;Max_cycle;Signal;HPM_P1;HPM_P2
2022/12/12 00:01:37;;;;;;;48.92;24.80;;;0.00;17.90;;;;;;5042344;28;20057;-76
2022/12/12 00:04:04;;;;;;;53.65;25.02;;;0.00;18.50;;;;;;5050231;28;20045;-76
2022/12/12 00:06:31;;;;;;;45.85;23.90;;;0.00;17.80;;;;;;5051652;28;20037;-76
2022/12/12 00:08:57;;;;;;;45.80;23.55;;;0.00;17.60;;;;;;5051188;28;20429;-76
2022/12/12 00:11:25;;;;;;;50.30;24.38;;;0.00;17.50;;;;;;5043788;28;20037;-77
2022/12/12 00:13:53;;;;;;;44.92;25.65;;;0.00;17.50;;;;;;5051326;28;20036;-76
2022/12/12 00:16:20;;;;;;;58.80;27.73;;;0.00;17.90;;;;;;5051656;28;20033;-77
2022/12/12 00:18:46;;;;;;;50.75;26.08;;;0.00;17.50;;;;;;5054751;28;20473;-76
2022/12/12 00:21:22;;;;;;;50.00;23.20;;;0.00;17.40;;;;;;5050007;28;20037;-77
2022/12/12 00:23:49;;;;;;;48.60;23.48;;;0.00;17.30;;;;;;5051443;28;20033;-77
2022/12/12 00:26:26;;;;;;;50.58;22.70;;;0.00;16.40;;;;;;5051471;28;20033;-77
2022/12/12 00:28:52;;;;;;;50.88;22.20;;;0.00;16.70;;;;;;5050735;28;20040;-76
2022/12/12 00:31:18;;;;;;;45.72;21.90;;;-0.10;18.00;;;;;;5049710;28;20049;-77
2022/12/12 00:33:47;;;;;;;48.45;23.38;;;-0.10;20.90;;;;;;5050931;28;20025;-76
2022/12/12 00:36:18;;;;;;;53.38;23.90;;;0.00;21.80;;;;;;5045301;28;20029;-76
2022/12/12 00:38:45;;;;;;;46.53;23.13;;;-0.10;22.60;;;;;;5045570;28;20037;-76
2022/12/12 00:41:11;;;;;;;46.08;22.33;;;-0.10;25.30;;;;;;5049854;28;20462;-76
2022/12/12 00:43:37;;;;;;;57.10;24.55;;;-0.10;26.10;;;;;;5051503;28;20032;-77
2022/12/12 00:46:04;;;;;;;48.47;23.30;;;-0.20;26.40;;;;;;5032755;28;20060;-77
2022/12/12 00:48:30;;;;;;;53.22;25.15;;;-0.20;25.00;;;;;;5054500;28;20028;-77
2022/12/12 00:50:57;;;;;;;56.30;25.90;;;-0.20;22.30;;;;;;5053398;28;20395;-77
2022/12/12 00:53:23;;;;;;;49.78;23.88;;;-0.20;20.20;;;;;;5055455;28;20381;-77
2022/12/12 00:55:57;;;;;;;51.63;23.75;;;-0.20;18.40;;;;;;5054550;28;20450;-77
2022/12/12 00:58:24;;;;;;;53.17;24.85;;;-0.20;18.60;;;;;;5057645;28;20386;-76
2022/12/12 01:00:52;;;;;;;52.58;23.83;;;-0.30;18.20;;;;;;5054845;28;20056;-76
2022/12/12 01:03:19;;;;;;;56.80;24.35;;;-0.30;17.00;;;;;;5056085;28;20029;-76
2022/12/12 01:05:45;;;;;;;55.10;28.08;;;-0.30;15.90;;;;;;5057141;28;20033;-76
2022/12/12 01:08:11;;;;;;;59.42;26.27;;;-0.40;16.30;;;;;;5037641;28;20049;-77
2022/12/12 01:10:38;;;;;;;51.17;24.77;;;-0.50;16.30;;;;;;5059395;28;20048;-76
2022/12/12 01:13:04;;;;;;;50.85;23.58;;;-0.60;15.50;;;;;;5056036;28;20060;-76
2022/12/12 01:15:30;;;;;;;54.50;23.33;;;-0.60;14.90;;;;;;5057172;28;20036;-76
2022/12/12 01:17:57;;;;;;;49.30;22.80;;;-0.70;16.50;;;;;;5035531;28;20052;-76
2022/12/12 01:20:26;;;;;;;51.75;24.40;;;-0.70;17.10;;;;;;5054234;28;20033;-76
2022/12/12 01:22:52;;;;;;;55.65;24.65;;;-0.90;17.40;;;;;;5035189;28;20041;-76
2022/12/12 01:25:19;;;;;;;52.92;23.00;;;-0.90;19.00;;;;;;5054827;28;20104;-76
2022/12/12 01:27:46;;;;;;;46.13;22.35;;;-1.00;21.40;;;;;;5054534;28;20045;-76
2022/12/12 01:30:17;;;;;;;52.17;24.25;;;-1.20;24.20;;;;;;5054377;28;20488;-76
2022/12/12 01:32:44;;;;;;;37.83;17.25;;;-1.20;25.80;;;;;;5053513;28;20037;-76
2022/12/12 01:35:10;;;;;;;46.83;21.88;;;-1.30;28.70;;;;;;5053704;28;20036;-76
2022/12/12 01:37:38;;;;;;;51.40;23.63;;;-1.40;32.80;;;;;;5054375;28;20187;-76
2022/12/12 01:40:08;;;;;;;52.95;24.50;;;-1.50;38.70;;;;;;5053657;28;20040;-76
2022/12/12 01:42:34;;;;;;;53.17;24.63;;;-1.50;40.90;;;;;;5052494;28;20037;-76
2022/12/12 01:45:01;;;;;;;53.38;24.25;;;-1.50;43.70;;;;;;5053304;28;20041;-76
2022/12/12 01:47:27;;;;;;;54.80;27.90;;;-1.60;44.50;;;;;;5054053;28;20037;-76
2022/12/12 01:50:08;;;;;;;53.75;25.38;;;-1.60;45.20;;;;;;5053272;28;20029;-76
2022/12/12 01:52:42;;;;;;;47.90;22.45;;;-1.70;46.50;;;;;;5052190;28;20041;-76
2022/12/12 01:55:14;;;;;;;53.47;25.67;;;-1.70;48.10;;;;;;5034258;28;20037;-76
2022/12/12 01:57:42;;;;;;;;;;;-1.70;51.40;;;;;;5054203;28;20037;-76
2022/12/12 02:00:09;;;;;;;56.33;24.60;;;-1.80;54.70;;;;;;5053980;28;19913;-76
2022/12/12 02:02:38;;;;;;;56.00;24.77;;;-1.80;57.00;;;;;;5053509;28;20048;-76
2022/12/12 02:05:15;;;;;;;58.33;25.60;;;-1.80;59.20;;;;;;5053109;28;20040;-76
2022/12/12 02:07:41;;;;;;;49.28;23.95;;;-1.80;62.40;;;;;;5053601;28;20501;-76
2022/12/12 02:10:08;;;;;;;55.97;23.58;;;-1.90;66.70;;;;;;5054718;28;20048;-76
2022/12/12 02:12:34;;;;;;;61.40;25.77;;;-1.90;71.40;;;;;;5058869;28;20033;-75
2022/12/12 02:15:01;;;;;;;56.45;24.67;;;-1.80;79.50;;;;;;5057417;28;20028;-75
2022/12/12 02:18:04;;;;;;;54.50;25.10;;;-1.70;84.10;;;;;;5055267;28;20033;-76
2022/12/12 02:20:45;;;;;;;51.97;23.65;;;-1.70;86.20;;;;;;5053610;28;20029;-76
2022/12/12 02:23:41;;;;;;;67.70;32.67;;;-1.60;90.80;;;;;;5053205;28;20052;-76
2022/12/12 02:26:52;;;;;;;70.00;25.83;;;-1.60;93.20;;;;;;5053147;28;20056;-76
2022/12/12 02:29:34;;;;;;;64.20;27.45;;;-1.50;94.30;;;;;;5054064;28;20048;-76
2022/12/12 02:32:21;;;;;;;59.88;24.42;;;-1.40;92.50;;;;;;5051817;28;20033;-77
2022/12/12 02:34:59;;;;;;;54.22;25.85;;;-1.30;89.30;;;;;;5054128;28;20033;-76
2022/12/12 02:37:50;;;;;;;55.28;24.63;;;-1.30;83.20;;;;;;5053984;28;20044;-76
2022/12/12 02:40:22;;;;;;;59.90;23.52;;;-1.30;77.90;;;;;;5053513;28;20040;-76
2022/12/12 02:43:13;;;;;;;50.88;22.45;;;-1.20;72.80;;;;;;5052261;28;20045;-76
2022/12/12 02:45:47;;;;;;;56.00;23.93;;;-1.20;70.80;;;;;;5052582;28;20041;-76
2022/12/12 02:48:37;;;;;;;54.97;24.35;;;-1.20;67.10;;;;;;5052545;28;20472;-76
2022/12/12 02:51:06;;;;;;;57.00;22.67;;;-1.10;63.90;;;;;;5046264;28;20033;-76
2022/12/12 02:53:33;;;;;;;52.97;23.75;;;-1.20;60.70;;;;;;5053918;28;20037;-76
2022/12/12 02:56:06;;;;;;;53.72;24.50;;;-1.20;58.60;;;;;;5052411;28;20025;-76
2022/12/12 02:58:36;;;;;;;47.53;24.63;;;-1.20;57.30;;;;;;5052767;28;20032;-77
2022/12/12 03:01:17;;;;;;;58.72;26.42;;;-1.20;55.90;;;;;;5050822;28;20040;-76
2022/12/12 03:10:00;;;;;;;52.92;24.05;;;-1.30;56.60;;;;;;5052373;28;20033;-76
2022/12/12 03:12:48;;;;;;;51.65;23.80;;;-1.30;60.30;;;;;;5045446;28;20136;-76
2022/12/12 03:15:24;;;;;;;55.53;23.05;;;-1.30;62.90;;;;;;5051738;28;20336;-76
2022/12/12 03:18:08;;;;;;;53.38;24.02;;;-1.40;62.70;;;;;;5052576;28;20040;-76
2022/12/12 03:20:42;;;;;;;51.90;24.23;;;-1.40;62.70;;;;;;5050995;28;20033;-76
2022/12/12 03:23:16;;;;;;;48.45;23.02;;;-1.50;64.80;;;;;;5033609;28;20051;-76
2022/12/12 03:25:53;;;;;;;47.50;22.20;;;-1.50;68.30;;;;;;5046771;28;20422;-76
2022/12/12 03:28:25;;;;;;;48.38;25.23;;;-1.40;72.80;;;;;;5051563;28;20045;-76
2022/12/12 03:30:56;;;;;;;60.08;25.60;;;-1.50;75.00;;;;;;5051200;28;20451;-76
2022/12/12 03:33:34;;;;;;;58.25;23.70;;;-1.40;76.80;;;;;;5052163;28;20405;-76
2022/12/12 03:36:21;;;;;;;52.15;22.63;;;-1.50;75.80;;;;;;5051332;28;20029;-76
2022/12/12 03:38:56;;;;;;;50.83;24.30;;;-1.50;76.20;;;;;;5052474;28;20037;-76
2022/12/12 03:41:27;;;;;;;56.63;24.88;;;-1.50;78.40;;;;;;5044400;28;20466;-76
2022/12/12 03:44:26;;;;;;;59.25;24.83;;;-1.50;81.80;;;;;;5053104;28;20516;-76
2022/12/12 03:47:04;;;;;;;57.78;26.00;;;-1.50;82.40;;;;;;5051664;28;20032;-76
2022/12/12 03:49:49;;;;;;;62.90;25.98;;;-1.40;83.50;;;;;;5051661;28;20036;-76
2022/12/12 03:52:29;;;;;;;52.67;22.55;;;-1.40;82.30;;;;;;5049764;28;20382;-76
2022/12/12 03:55:13;;;;;;;52.60;24.35;;;-1.40;81.80;;;;;;5051171;28;20029;-76
2022/12/12 03:57:59;;;;;;;52.40;24.27;;;-1.40;82.10;;;;;;5051501;28;20033;-76
2022/12/12 04:00:28;;;;;;;48.15;22.33;;;-1.40;81.70;;;;;;5032294;28;20470;-76
2022/12/12 04:03:02;;;;;;;55.47;24.48;;;-1.50;81.70;;;;;;5051467;28;20474;-76
2022/12/12 04:08:33;;;;;;;47.90;22.25;;;-1.40;82.90;;;;;;5052143;28;20056;-76
2022/12/12 04:13:56;;;;;;;82.38;33.40;;;-1.40;82.00;;;;;;5048131;28;20036;-76
2022/12/12 04:16:29;;;;;;;58.08;25.65;;;-1.40;81.20;;;;;;5051853;28;20033;-76
2022/12/12 04:25:11;;;;;;;52.95;23.60;;;-1.30;80.40;;;;;;5057924;28;20386;-76
2022/12/12 04:27:47;;;;;;;53.83;23.02;;;-1.30;79.30;;;;;;5058599;28;20028;-76
2022/12/12 04:30:14;;;;;;;62.30;27.00;;;-1.30;78.30;;;;;;5056794;28;20033;-75
2022/12/12 04:33:00;;;;;;;52.45;24.00;;;-1.30;77.80;;;;;;5057381;28;20041;-76
2022/12/12 04:35:50;;;;;;;60.55;26.15;;;-1.30;78.40;;;;;;5040695;28;20055;-76
2022/12/12 04:38:22;;;;;;;69.18;28.73;;;-1.30;79.10;;;;;;5057423;28;20036;-76
2022/12/12 04:40:52;;;;;;;98.88;46.53;;;-1.30;79.40;;;;;;5050453;28;20033;-76
2022/12/12 04:43:27;;;;;;;54.15;25.58;;;-1.30;79.80;;;;;;5056992;28;20047;-76
2022/12/12 04:45:58;;;;;;;67.20;30.60;;;-1.30;80.10;;;;;;5057838;28;20048;-76
2022/12/12 04:48:48;;;;;;;55.13;25.98;;;-1.30;79.80;;;;;;5060103;28;20037;-76
2022/12/12 04:51:20;;;;;;;145.10;65.00;;;-1.30;79.60;;;;;;5034591;28;20048;-76
2022/12/12 04:53:53;;;;;;;96.97;44.53;;;-1.30;78.40;;;;;;5057989;28;20466;-76
2022/12/12 04:56:26;;;;;;;63.45;27.85;;;-1.30;76.70;;;;;;5040103;28;20048;-76
2022/12/12 04:58:52;;;;;;;53.58;26.40;;;-1.20;74.80;;;;;;5057538;28;20041;-76
2022/12/12 05:01:26;;;;;;;52.83;24.55;;;-1.30;73.60;;;;;;5037269;28;20040;-77
2022/12/12 05:03:59;;;;;;;55.20;24.52;;;-1.20;71.70;;;;;;5040440;28;20036;-76
2022/12/12 05:06:43;;;;;;;63.38;27.60;;;-1.20;70.00;;;;;;5039548;28;20045;-76
2022/12/12 05:09:12;;;;;;;56.97;26.38;;;-1.30;68.90;;;;;;5055827;28;20059;-76
2022/12/12 05:11:40;;;;;;;50.97;24.35;;;-1.20;68.30;;;;;;5053735;28;20029;-75
2022/12/12 05:14:10;;;;;;;50.92;24.15;;;-1.20;66.80;;;;;;5057002;28;20460;-75
2022/12/12 05:16:42;;;;;;;52.15;24.67;;;-1.20;65.80;;;;;;5057413;28;20036;-75
2022/12/12 05:19:08;;;;;;;78.80;37.53;;;-1.20;65.10;;;;;;5039742;28;20078;-77
2022/12/12 05:21:34;;;;;;;66.50;32.10;;;-1.20;64.40;;;;;;5056116;28;20458;-74
2022/12/12 05:24:00;;;;;;;53.72;25.48;;;-1.20;63.70;;;;;;5055250;28;20051;-75
2022/12/12 05:26:33;;;;;;;58.53;24.33;;;-1.20;63.50;;;;;;5059060;28;20335;-75
2022/12/12 05:29:00;;;;;;;51.25;22.90;;;-1.20;63.70;;;;;;5057359;28;20466;-75
2022/12/12 05:31:26;;;;;;;59.67;24.83;;;-1.20;62.40;;;;;;5056298;28;20025;-76
2022/12/12 05:33:52;;;;;;;52.40;23.15;;;-1.20;60.40;;;;;;5044616;28;20038;-75
2022/12/12 05:36:20;;;;;;;49.22;23.27;;;-1.10;57.00;;;;;;5035412;28;20044;-75
2022/12/12 05:38:46;;;;;;;104.00;52.28;;;-1.10;54.00;;;;;;5045349;28;20040;-75
2022/12/12 05:41:14;;;;;;;56.90;26.35;;;-1.20;51.90;;;;;;5052274;28;20037;-75
2022/12/12 05:43:40;;;;;;;53.28;24.20;;;-1.20;51.30;;;;;;5049298;28;20394;-75
2022/12/12 05:46:07;;;;;;;50.53;23.48;;;-1.20;50.40;;;;;;5018310;28;20049;-75
2022/12/12 05:48:33;;;;;;;48.78;23.80;;;-1.20;49.20;;;;;;5053359;28;20052;-75
2022/12/12 05:51:01;;;;;;;53.03;26.40;;;-1.20;49.30;;;;;;5045958;28;20029;-75
2022/12/12 05:53:27;;;;;;;48.92;22.85;;;-1.20;48.40;;;;;;5051345;28;20047;-76
2022/12/12 05:55:53;;;;;;;53.22;24.17;;;-1.10;47.10;;;;;;5054365;28;20041;-76
2022/12/12 05:58:20;;;;;;;49.22;22.25;;;-1.10;46.00;;;;;;5049964;28;20033;-76
2022/12/12 06:00:47;;;;;;;50.58;22.17;;;-1.10;45.10;;;;;;5050245;28;20048;-75
2022/12/12 06:03:14;;;;;;;43.35;20.40;;;-1.10;43.60;;;;;;5018748;28;20044;-76
2022/12/12 06:05:41;;;;;;;44.60;21.92;;;-1.10;43.10;;;;;;5050260;28;20029;-77
2022/12/12 06:08:07;;;;;;;46.40;23.30;;;-1.10;42.00;;;;;;5049347;28;20397;-75
2022/12/12 06:10:33;;;;;;;44.83;19.80;;;-1.10;42.60;;;;;;5051936;28;20048;-75
2022/12/12 06:12:59;;;;;;;45.72;21.40;;;-1.10;42.90;;;;;;5055126;28;20033;-85
2022/12/12 06:15:26;;;;;;;47.10;22.75;;;-1.10;42.40;;;;;;5016319;28;20041;-82
2022/12/12 06:17:52;;;;;;;47.38;19.98;;;-1.10;41.60;;;;;;5039301;28;20033;-82
2022/12/12 06:20:18;;;;;;;47.60;21.52;;;-1.10;41.40;;;;;;5052270;28;20040;-81
2022/12/12 06:22:44;;;;;;;40.30;19.92;;;-1.10;41.50;;;;;;5051093;28;20036;-82
2022/12/12 06:25:11;;;;;;;45.22;21.92;;;-1.10;41.90;;;;;;5051000;28;20036;-81
2022/12/12 06:27:37;;;;;;;47.53;22.50;;;-1.10;42.00;;;;;;5051208;28;20044;-83
2022/12/12 06:30:05;;;;;;;45.33;21.52;;;-1.10;42.10;;;;;;5047295;28;20052;-77
2022/12/12 06:32:32;;;;;;;47.53;21.23;;;-1.10;42.20;;;;;;5040365;28;20753;-82
2022/12/12 06:34:58;;;;;;;49.80;21.50;;;-1.10;42.00;;;;;;5053152;28;20036;-82
2022/12/12 06:37:24;;;;;;;49.80;23.30;;;-1.10;38.90;;;;;;5047865;28;20032;-81
2022/12/12 06:39:50;;;;;;;47.55;19.55;;;-1.10;36.10;;;;;;5050727;28;20377;-81
2022/12/12 06:42:16;;;;;;;44.85;22.58;;;-1.10;35.40;;;;;;5049390;28;20052;-81
2022/12/12 06:44:43;;;;;;;49.22;24.00;;;-1.10;34.10;;;;;;5052759;28;20037;-81
2022/12/12 06:47:09;;;;;;;43.67;21.42;;;-1.10;33.30;;;;;;5052388;28;20025;-81
2022/12/12 06:49:35;;;;;;;45.22;20.13;;;-1.20;33.30;;;;;;5053670;28;20032;-82
2022/12/12 06:52:01;;;;;;;46.88;19.40;;;-1.20;33.20;;;;;;5031739;28;20037;-81
2022/12/12 06:54:28;;;;;;;46.92;22.63;;;-1.20;32.80;;;;;;5051744;28;20366;-81
2022/12/12 06:56:54;;;;;;;48.38;21.77;;;-1.20;33.20;;;;;;5051468;28;20385;-82
2022/12/12 06:59:20;;;;;;;47.78;21.45;;;-1.20;33.60;;;;;;5049297;28;20021;-81
2022/12/12 07:01:47;;;;;;;45.00;22.52;;;-1.20;34.10;;;;;;5034713;28;20040;-83
2022/12/12 07:04:14;;;;;;;42.75;20.80;;;-1.20;34.40;;;;;;5050889;28;20386;-81
2022/12/12 07:06:40;;;;;;;43.00;19.08;;;-1.20;34.50;;;;;;5050044;28;20354;-81
2022/12/12 07:09:07;;;;;;;50.72;21.38;;;-1.20;35.10;;;;;;5054169;28;20057;-81
2022/12/12 07:11:33;;;;;;;46.63;21.20;;;-1.20;35.20;;;;;;5047288;28;20508;-79
2022/12/12 07:14:02;;;;;;;40.70;20.52;;;-1.20;36.30;;;;;;5046174;28;20032;-80
2022/12/12 07:16:28;;;;;;;43.60;20.67;;;-1.20;34.20;;;;;;5048978;28;20044;-80
2022/12/12 07:18:54;;;;;;;34.47;17.35;;;-1.10;27.10;;;;;;5050644;28;20028;-81
2022/12/12 07:21:21;;;;;;;46.20;18.85;;;-1.20;23.00;;;;;;5050403;28;20037;-82
2022/12/12 07:23:47;;;;;;;37.13;18.20;;;-1.20;21.40;;;;;;5049094;28;20033;-81
2022/12/12 07:26:16;;;;;;;38.75;18.65;;;-1.20;20.90;;;;;;5048461;28;20040;-81
2022/12/12 07:28:43;;;;;;;39.08;18.60;;;-1.20;21.10;;;;;;5048949;28;20029;-81
2022/12/12 07:31:12;;;;;;;44.22;19.67;;;-1.10;21.40;;;;;;5041838;28;20052;-81
2022/12/12 07:33:40;;;;;;;41.75;22.30;;;-1.10;21.50;;;;;;5048272;28;20029;-81
2022/12/12 07:36:06;;;;;;;47.15;21.52;;;-1.10;22.30;;;;;;5045975;28;20041;-81
2022/12/12 07:38:33;;;;;;;44.33;18.15;;;-1.10;22.70;;;;;;5052540;28;20033;-82
2022/12/12 07:41:08;;;;;;;48.40;21.83;;;-1.10;22.90;;;;;;5048913;28;20040;-81
2022/12/12 07:43:36;;;;;;;40.00;19.52;;;-1.10;21.90;;;;;;5047870;28;20044;-82
2022/12/12 07:46:08;;;;;;;38.78;19.50;;;-1.10;21.60;;;;;;5034069;28;20493;-78
2022/12/12 07:48:36;;;;;;;41.90;20.13;;;-1.10;20.50;;;;;;5052264;28;20043;-81
2022/12/12 07:51:05;;;;;;;43.83;19.50;;;-1.10;20.40;;;;;;5051432;28;20036;-77
2022/12/12 07:53:31;;;;;;;43.65;20.77;;;-1.10;19.90;;;;;;5051253;28;20047;-81
2022/12/12 07:55:58;;;;;;;43.03;19.83;;;-1.10;18.50;;;;;;5051724;28;20032;-81
2022/12/12 07:58:24;;;;;;;51.60;24.55;;;-1.00;16.70;;;;;;5051328;28;20029;-80
2022/12/12 08:00:50;;;;;;;44.53;20.83;;;-1.00;13.40;;;;;;5054125;28;20025;-79
2022/12/12 08:03:16;;;;;;;38.55;18.25;;;-1.00;11.00;;;;;;5045198;28;20386;-81
2022/12/12 08:05:43;;;;;;;44.67;22.13;;;-1.00;7.70;;;;;;5045955;28;20045;-81
2022/12/12 08:08:09;;;;;;;38.55;18.83;;;-1.00;6.80;;;;;;5033452;28;20482;-81
2022/12/12 08:10:38;;;;;;;43.22;17.70;;;-1.00;4.80;;;;;;5050763;28;20041;-81
2022/12/12 08:13:05;;;;;;;41.15;19.80;;;-0.90;4.30;;;;;;5043601;28;20047;-81
2022/12/12 08:15:32;;;;;;;43.05;18.27;;;-0.90;3.30;;;;;;5050463;28;20355;-80
2022/12/12 08:17:58;;;;;;;38.15;18.92;;;-0.90;1.00;;;;;;5051707;28;20029;-81
2022/12/12 08:20:24;;;;;;;44.05;19.08;;;-0.90;1.00;;;;;;5051392;28;20025;-81
2022/12/12 08:22:51;;;;;;;34.58;16.88;;;-0.90;1.00;;;;;;5061371;28;20043;-81
2022/12/12 08:25:17;;;;;;;42.30;18.65;;;-0.80;1.00;;;;;;5033408;28;20029;-81
2022/12/12 08:27:43;;;;;;;37.65;19.20;;;-0.80;1.00;;;;;;5053421;28;20029;-81
2022/12/12 08:30:10;;;;;;;38.28;18.38;;;-0.80;1.00;;;;;;5051646;28;20029;-81
2022/12/12 08:32:38;;;;;;;41.53;18.10;;;-0.80;1.00;;;;;;5048515;28;20044;-80
2022/12/12 08:35:04;;;;;;;42.15;20.60;;;-0.70;1.00;;;;;;5067349;28;20029;-77
2022/12/12 08:37:30;;;;;;;38.33;19.63;;;-0.80;1.00;;;;;;5062027;28;20023;-81
2022/12/12 08:39:57;;;;;;;44.45;20.20;;;-0.70;1.00;;;;;;5059138;28;20044;-81
2022/12/12 08:42:23;;;;;;;37.10;17.40;;;-0.70;1.00;;;;;;5067201;28;20282;-79
2022/12/12 08:44:49;;;;;;;37.83;18.67;;;-0.70;1.00;;;;;;5058069;28;20048;-78
2022/12/12 08:47:15;;;;;;;39.15;17.77;;;-0.70;1.00;;;;;;5052491;28;20040;-81
2022/12/12 08:49:42;;;;;;;40.22;19.15;;;-0.70;1.00;;;;;;5055516;28;20053;-80
2022/12/12 08:52:08;;;;;;;44.10;19.45;;;-0.70;1.00;;;;;;5054041;28;20457;-80
2022/12/12 08:54:36;;;;;;;39.03;19.08;;;-0.70;1.00;;;;;;5047919;28;20033;-81
2022/12/12 08:57:03;;;;;;;39.95;18.75;;;-0.60;1.00;;;;;;5034784;28;20044;-82
2022/12/12 08:59:29;;;;;;;41.50;21.02;;;-0.60;1.00;;;;;;5050537;28;20029;-81
2022/12/12 09:01:55;;;;;;;39.13;19.80;;;-0.60;1.00;;;;;;5050040;28;20040;-82
2022/12/12 09:04:21;;;;;;;47.50;21.27;;;-0.60;1.00;;;;;;5041063;28;20051;-81
2022/12/12 09:06:48;;;;;;;35.20;17.73;;;-0.70;1.00;;;;;;5057613;28;20041;-80
2022/12/12 09:09:14;;;;;;;47.80;23.38;;;-0.70;1.00;;;;;;5056454;28;20398;-81
2022/12/12 09:11:40;;;;;;;59.88;30.30;;;-0.80;1.00;;;;;;5039894;28;20037;-79
2022/12/12 09:14:06;;;;;;;44.65;22.38;;;-0.80;1.00;;;;;;5027081;28;20060;-80
2022/12/12 09:16:32;;;;;;;43.25;20.58;;;-0.80;1.00;;;;;;5036740;28;20025;-81
2022/12/12 09:18:59;;;;;;;41.90;19.15;;;-0.80;1.00;;;;;;5053807;28;20426;-80
2022/12/12 09:21:26;;;;;;;37.33;19.45;;;-0.90;1.00;;;;;;5050196;28;20218;-81
2022/12/12 09:23:52;;;;;;;45.58;21.73;;;-0.90;1.00;;;;;;5047163;28;20055;-80
2022/12/12 09:26:18;;;;;;;46.10;21.55;;;-0.90;1.00;;;;;;5048238;28;20695;-80
2022/12/12 09:28:45;;;;;;;50.30;25.05;;;-0.80;1.00;;;;;;5034499;28;20052;-80
2022/12/12 09:31:12;;;;;;;48.42;24.42;;;-0.70;1.00;;;;;;5052299;28;20044;-80
2022/12/12 09:33:38;;;;;;;44.17;21.80;;;-0.70;1.00;;;;;;5049952;28;20033;-80
2022/12/12 09:36:06;;;;;;;51.67;23.83;;;-0.70;1.00;;;;;;5053818;28;20040;-78
2022/12/12 09:38:34;;;;;;;43.88;22.10;;;-0.60;1.00;;;;;;5053348;28;20045;-80
2022/12/12 09:41:18;;;;;;;50.80;23.27;;;-0.50;1.00;;;;;;5048087;28;20056;-80
2022/12/12 09:43:59;;;;;;;43.92;21.63;;;-0.40;1.00;;;;;;5049176;28;20025;-81
2022/12/12 09:46:46;;;;;;;46.70;22.80;;;-0.30;1.00;;;;;;5049215;28;20029;-80
2022/12/12 09:49:24;;;;;;;44.88;20.27;;;-0.40;1.00;;;;;;5049902;28;20029;-80
2022/12/12 09:51:51;;;;;;;50.40;22.98;;;-0.40;1.00;;;;;;5048150;28;20033;-80
2022/12/12 09:54:21;;;;;;;44.60;21.10;;;-0.40;1.00;;;;;;5047755;28;20103;-81
2022/12/12 09:56:53;;;;;;;45.17;21.50;;;-0.30;1.00;;;;;;5051888;28;20033;-81
2022/12/12 09:59:29;;;;;;;46.53;20.52;;;-0.20;1.00;;;;;;5051217;28;20048;-81
2022/12/12 10:02:15;;;;;;;43.72;21.88;;;-0.30;1.00;;;;;;5036509;28;20029;-81
2022/12/12 10:05:00;;;;;;;44.97;22.58;;;-0.20;1.00;;;;;;5032787;28;20044;-81
2022/12/12 10:07:39;;;;;;;44.22;21.73;;;-0.10;1.00;;;;;;5050745;28;20029;-81
2022/12/12 10:10:31;;;;;;;47.50;24.65;;;0.00;1.00;;;;;;5049196;28;20029;-78
2022/12/12 10:13:00;;;;;;;42.20;19.77;;;0.00;1.00;;;;;;5047806;28;20040;-81
2022/12/12 10:15:35;;;;;;;44.95;21.15;;;0.00;1.00;;;;;;5052633;28;20025;-81
2022/12/12 10:18:11;;;;;;;37.28;18.98;;;0.10;1.00;;;;;;5050170;28;20032;-81
2022/12/12 10:20:50;;;;;;;41.60;19.95;;;0.10;1.00;;;;;;5047881;28;20040;-80
2022/12/12 10:23:37;;;;;;;38.50;19.75;;;0.20;1.00;;;;;;5048811;28;20422;-81
2022/12/12 10:26:15;;;;;;;38.85;19.48;;;0.20;1.00;;;;;;5051349;28;20033;-81
2022/12/12 10:28:41;;;;;;;42.45;24.00;;;0.40;1.00;;;;;;5052112;28;20051;-80
2022/12/12 10:31:51;;;;;;;38.10;20.33;;;0.50;1.00;;;;;;5047852;28;20037;-78
2022/12/12 10:34:25;;;;;;;37.47;19.50;;;0.40;1.00;;;;;;5011321;28;20057;-80
2022/12/12 10:37:00;;;;;;;41.67;20.90;;;0.10;1.00;;;;;;5051127;28;20032;-81
2022/12/12 10:39:48;;;;;;;39.90;19.80;;;0.20;1.00;;;;;;5045827;28;20024;-80
2022/12/12 10:42:29;;;;;;;40.05;19.42;;;0.20;1.00;;;;;;5049619;28;20029;-80
2022/12/12 10:45:27;;;;;;;37.10;20.15;;;0.20;1.00;;;;;;5040293;28;20033;-80
2022/12/12 10:47:54;;;;;;;44.88;22.73;;;0.20;1.00;;;;;;5018742;28;20600;-81
2022/12/12 10:50:42;;;;;;;41.33;21.08;;;0.20;1.00;;;;;;5041457;28;20033;-81
2022/12/12 10:53:11;;;;;;;40.42;19.67;;;0.20;1.00;;;;;;5030465;28;20044;-78
2022/12/12 10:55:48;;;;;;;43.47;20.70;;;0.30;1.00;;;;;;5050724;28;20063;-81
2022/12/12 10:58:18;;;;;;;38.80;19.50;;;0.40;1.00;;;;;;5043153;28;20029;-81
2022/12/12 11:00:47;;;;;;;39.13;19.40;;;0.50;1.00;;;;;;5051675;28;20036;-81
2022/12/12 11:03:41;;;;;;;28.80;14.02;;;0.90;1.00;;;;;;5029932;28;20056;-81
2022/12/12 11:06:13;;;;;;;33.95;18.10;;;1.00;1.00;;;;;;5050488;28;20420;-78
2022/12/12 11:08:55;;;;;;;37.50;22.13;;;1.10;1.00;;;;;;5049435;28;20049;-81
2022/12/12 11:11:26;;;;;;;33.83;17.73;;;1.00;1.00;;;;;;5051630;28;20025;-81
2022/12/12 11:13:59;;;;;;;35.28;18.35;;;0.90;1.00;;;;;;5046953;28;20055;-81
2022/12/12 11:16:39;;;;;;;33.97;17.90;;;0.70;1.00;;;;;;5049345;28;20036;-81
2022/12/12 11:19:15;;;;;;;30.20;16.65;;;0.50;1.00;;;;;;5049983;28;20025;-82
2022/12/12 11:21:41;;;;;;;33.75;18.13;;;0.50;1.00;;;;;;5051397;28;20029;-81
2022/12/12 11:24:13;;;;;;;33.28;17.45;;;0.50;1.00;;;;;;5048990;28;20029;-78
2022/12/12 11:26:47;;;;;;;35.08;17.52;;;0.50;1.00;;;;;;5049600;28;20029;-81
2022/12/12 11:29:41;;;;;;;31.48;17.05;;;0.50;1.00;;;;;;5048889;28;20033;-81
2022/12/12 11:32:18;;;;;;;38.17;17.13;;;0.50;1.00;;;;;;5046802;28;20052;-78
2022/12/12 11:34:58;;;;;;;32.05;16.95;;;0.50;1.00;;;;;;5045817;28;20029;-80
2022/12/12 11:37:31;;;;;;;30.63;14.57;;;0.60;1.00;;;;;;5051401;28;20037;-81
2022/12/12 11:39:58;;;;;;;36.80;17.70;;;0.50;1.00;;;;;;5048874;28;20033;-79
2022/12/12 11:42:28;;;;;;;34.40;16.95;;;0.50;1.00;;;;;;5047753;28;20040;-81
2022/12/12 11:45:08;;;;;;;32.05;17.15;;;0.70;1.00;;;;;;5051685;28;20029;-82
2022/12/12 11:47:43;;;;;;;34.38;16.35;;;0.70;1.00;;;;;;5036397;28;20466;-82
2022/12/12 11:50:26;;;;;;;57.28;32.13;;;0.80;1.00;;;;;;5051457;28;20036;-81
2022/12/12 11:53:00;;;;;;;33.20;18.02;;;0.90;1.00;;;;;;5044202;28;20060;-81
2022/12/12 11:55:56;;;;;;;34.13;18.25;;;1.00;1.00;;;;;;5051925;28;20043;-81
2022/12/12 11:58:33;;;;;;;37.28;19.70;;;1.10;1.00;;;;;;5034767;28;20033;-81
2022/12/12 12:01:11;;;;;;;30.45;17.30;;;1.10;1.00;;;;;;5074020;28;20024;-77
2022/12/12 12:04:19;;;;;;;33.80;16.77;;;1.00;1.00;;;;;;5068691;28;20024;-81
2022/12/12 12:07:08;;;;;;;27.30;15.18;;;1.00;1.00;;;;;;5050171;28;20072;-81
2022/12/12 12:09:56;;;;;;;31.23;17.45;;;0.90;1.00;;;;;;5017570;28;20055;-81
2022/12/12 12:12:46;;;;;;;33.13;16.77;;;0.90;1.00;;;;;;5045667;28;20367;-82
2022/12/12 12:15:49;;;;;;;28.40;15.20;;;0.80;1.00;;;;;;5053754;28;20029;-78
2022/12/12 12:18:31;;;;;;;30.83;15.55;;;0.70;1.00;;;;;;5054328;28;20411;-80
2022/12/12 12:21:07;;;;;;;30.55;15.70;;;0.70;1.00;;;;;;5073872;28;20037;-81
2022/12/12 12:24:11;;;;;;;26.23;13.98;;;0.80;1.00;;;;;;5062003;28;20033;-82
2022/12/12 12:27:20;;;;;;;28.23;14.80;;;0.80;1.00;;;;;;5035880;28;20048;-81
2022/12/12 12:30:21;;;;;;;30.50;15.73;;;0.80;1.00;;;;;;5038433;28;20442;-83
2022/12/12 12:32:47;;;;;;;25.85;15.02;;;1.00;1.00;;;;;;5013008;28;20085;-82
2022/12/12 12:35:22;;;;;;;28.77;14.45;;;1.10;1.00;;;;;;5032784;28;20037;-83
2022/12/12 12:38:19;;;;;;;25.42;13.20;;;1.00;1.00;;;;;;5052624;28;20048;-82
2022/12/12 12:41:05;;;;;;;22.40;12.40;;;1.00;1.00;;;;;;5046215;28;20037;-81
2022/12/12 12:43:41;;;;;;;18.88;11.73;;;0.80;1.00;;;;;;5047268;28;20044;-82
2022/12/12 12:46:43;;;;;;;22.05;11.70;;;0.80;1.00;;;;;;5050507;28;20056;-81
2022/12/12 12:49:33;;;;;;;19.90;11.00;;;0.70;1.00;;;;;;5051108;28;20029;-81
2022/12/12 12:52:06;;;;;;;18.92;10.25;;;0.70;1.00;;;;;;5055577;28;20036;-81
2022/12/12 12:54:36;;;;;;;28.00;11.02;;;0.60;1.00;;;;;;5052049;28;20045;-81
2022/12/12 12:57:05;;;;;;;26.35;14.38;;;0.50;1.00;;;;;;5036129;28;20041;-82
2022/12/12 12:59:38;;;;;;;24.98;12.38;;;0.50;1.00;;;;;;5049883;28;20063;-81
2022/12/12 13:02:29;;;;;;;23.20;11.95;;;0.40;1.00;;;;;;5052372;28;20025;-81
2022/12/12 13:05:06;;;;;;;24.45;12.88;;;0.40;1.00;;;;;;5030426;28;20041;-82
2022/12/12 13:07:52;;;;;;;23.48;13.52;;;0.40;1.00;;;;;;5037198;28;20049;-82
2022/12/12 13:10:22;;;;;;;20.55;10.95;;;0.30;1.00;;;;;;5037299;28;20044;-82
2022/12/12 13:13:13;;;;;;;24.25;11.57;;;0.30;1.00;;;;;;5051231;28;20083;-82
2022/12/12 13:15:57;;;;;;;22.80;12.18;;;0.30;1.00;;;;;;5048463;28;20033;-83
2022/12/12 13:18:24;;;;;;;20.40;10.75;;;0.40;1.00;;;;;;5055306;28;20390;-82
2022/12/12 13:21:06;;;;;;;22.08;11.15;;;0.40;1.00;;;;;;5037484;28;20037;-82